Time;durP1;ratioP1;P1;durP2;ratioP2;P2;SDS_P1;SDS_P2;PMS_P1;PMS_P2;Temp;Humidity;BMP_temperature;BMP_pressure;BME280_temperature;BME280_humidity;BME280_pressure;Samples;Min_cycle;Max_cycle;Signal;HPM_P1;HPM_P2
2023/11/28 00:00:03;;;;;;;57.40;37.30;;;;;;;-1.12;100.00;97207.72;109580;1250;67070;-75
2023/11/28 00:02:30;;;;;;;51.40;35.40;;;;;;;-1.14;100.00;97204.66;109528;1251;61389;-75
2023/11/28 00:04:56;;;;;;;54.50;34.90;;;;;;;-1.14;100.00;97200.15;109543;1251;65562;-76
2023/11/28 00:07:23;;;;;;;56.60;33.60;;;;;;;-1.15;100.00;97195.30;109570;1251;58989;-76
2023/11/28 00:09:50;;;;;;;45.20;32.60;;;;;;;-1.14;100.00;97197.88;109553;1251;58954;-75
2023/11/28 00:12:17;;;;;;;53.50;36.10;;;;;;;-1.14;100.00;97196.48;109522;1252;65932;-75
2023/11/28 00:14:43;;;;;;;52.60;36.10;;;;;;;-1.16;100.00;97192.55;109544;1250;61103;-77
2023/11/28 00:17:10;;;;;;;52.00;35.20;;;;;;;-1.16;100.00;97195.17;109521;1251;65355;-77
2023/11/28 00:19:36;;;;;;;53.60;33.90;;;;;;;-1.17;100.00;97192.08;109505;1251;59233;-77
2023/11/28 00:22:03;;;;;;;57.30;34.40;;;;;;;-1.19;100.00;97191.48;109248;1250;59086;-76
2023/11/28 00:24:30;;;;;;;53.50;35.70;;;;;;;-1.20;100.00;97185.59;109672;1250;66034;-76
2023/11/28 00:26:56;;;;;;;52.10;34.60;;;;;;;-1.20;100.00;97183.69;109601;1251;59328;-77
2023/11/28 00:29:23;;;;;;;57.00;37.80;;;;;;;-1.21;100.00;97182.86;109554;1251;62750;-77
2023/11/28 00:31:49;;;;;;;60.40;37.50;;;;;;;-1.21;100.00;97181.84;109590;1251;59017;-76
2023/11/28 00:34:16;;;;;;;55.10;37.10;;;;;;;-1.21;100.00;97179.39;109700;1251;59355;-76
2023/11/28 00:36:42;;;;;;;55.30;36.50;;;;;;;-1.22;100.00;97183.48;109622;1251;65751;-76
2023/11/28 00:39:09;;;;;;;53.00;35.10;;;;;;;-1.23;100.00;97176.74;109552;1251;60000;-75
2023/11/28 00:41:36;;;;;;;59.50;38.80;;;;;;;-1.24;100.00;97174.17;109588;1251;64983;-73
2023/11/28 00:44:02;;;;;;;57.60;37.10;;;;;;;-1.26;100.00;97166.92;109568;1251;58973;-77
2023/11/28 00:46:29;;;;;;;60.70;40.30;;;;;;;-1.25;100.00;97165.33;109392;1251;59028;-75
2023/11/28 00:48:56;;;;;;;54.30;37.20;;;;;;;-1.25;100.00;97160.63;109586;1251;66722;-77
2023/11/28 00:51:23;;;;;;;56.50;37.90;;;;;;;-1.24;100.00;97154.83;109604;1250;61134;-77
2023/11/28 00:53:50;;;;;;;62.90;41.70;;;;;;;-1.26;100.00;97148.80;109613;1251;64226;-76
2023/11/28 00:56:20;;;;;;;60.50;38.90;;;;;;;-1.27;100.00;97146.25;109608;1251;58883;-76
2023/11/28 00:58:48;;;;;;;58.00;39.20;;;;;;;-1.26;100.00;97146.91;109540;1251;58990;-77
2023/11/28 01:01:16;;;;;;;59.10;38.70;;;;;;;-1.27;100.00;97144.13;109604;1251;67131;-76
2023/11/28 01:03:43;;;;;;;61.60;39.70;;;;;;;-1.27;100.00;97141.34;109559;1250;61036;-76
2023/11/28 01:06:09;;;;;;;57.60;38.50;;;;;;;-1.28;100.00;97138.61;109588;1251;65216;-77
2023/11/28 01:08:36;;;;;;;59.50;39.10;;;;;;;-1.29;100.00;97132.59;109341;1251;59008;-76
2023/11/28 01:11:02;;;;;;;61.30;38.30;;;;;;;-1.30;100.00;97123.07;109602;1251;58992;-76
2023/11/28 01:13:29;;;;;;;65.40;41.90;;;;;;;-1.30;100.00;97117.83;109561;1251;67031;-76
2023/11/28 01:15:56;;;;;;;60.00;40.70;;;;;;;-1.30;100.00;97112.75;109627;1250;60003;-76
2023/11/28 01:18:22;;;;;;;57.60;38.00;;;;;;;-1.29;100.00;97105.94;109611;1251;65140;-76
2023/11/28 01:20:49;;;;;;;64.60;41.70;;;;;;;-1.30;100.00;97101.09;109601;1251;59228;-76
2023/11/28 01:23:16;;;;;;;60.20;41.30;;;;;;;-1.32;100.00;97097.54;109624;1251;59150;-76
2023/11/28 01:25:42;;;;;;;63.30;41.60;;;;;;;-1.32;100.00;97094.40;109616;1251;66993;-77
2023/11/28 01:28:09;;;;;;;63.80;40.90;;;;;;;-1.34;100.00;97091.17;109554;1251;60984;-77
2023/11/28 01:30:35;;;;;;;63.10;40.70;;;;;;;-1.37;100.00;97090.11;109554;1251;65090;-76
2023/11/28 01:33:02;;;;;;;62.70;41.10;;;;;;;-1.40;100.00;97085.41;109606;1251;59363;-77
2023/11/28 01:35:29;;;;;;;65.70;43.80;;;;;;;-1.44;100.00;97079.49;109611;1251;59052;-75
2023/11/28 01:37:55;;;;;;;60.10;41.70;;;;;;;-1.46;100.00;97071.42;109302;1251;66623;-77
2023/11/28 01:40:22;;;;;;;64.30;42.50;;;;;;;-1.49;100.00;97065.44;109622;1251;60028;-76
2023/11/28 01:42:48;;;;;;;65.80;42.80;;;;;;;-1.49;100.00;97062.86;109590;1250;65035;-76
2023/11/28 01:45:15;;;;;;;64.00;41.60;;;;;;;-1.50;100.00;97058.05;109584;1251;59537;-76
2023/11/28 01:47:42;;;;;;;70.30;43.70;;;;;;;-1.50;100.00;97054.03;109588;1251;59103;-73
2023/11/28 01:50:09;;;;;;;68.30;44.60;;;;;;;-1.49;100.00;97053.83;109443;1251;66614;-76
2023/11/28 01:52:36;;;;;;;66.70;43.30;;;;;;;-1.50;100.00;97045.51;109663;1251;61032;-75
2023/11/28 01:55:04;;;;;;;60.70;42.20;;;;;;;-1.51;100.00;97042.41;109590;1251;64048;-76
2023/11/28 01:57:32;;;;;;;66.50;43.90;;;;;;;-1.52;100.00;97038.08;109564;1251;59010;-76
2023/11/28 02:00:03;;;;;;;70.20;42.40;;;;;;;-1.54;100.00;97032.78;109602;1251;58903;-75
2023/11/28 02:02:31;;;;;;;62.10;39.80;;;;;;;-1.56;100.00;97026.95;109579;1251;67280;-77
2023/11/28 02:04:58;;;;;;;68.70;44.50;;;;;;;-1.57;100.00;97023.02;109572;1251;59805;-75
2023/11/28 02:07:25;;;;;;;62.50;39.90;;;;;;;-1.59;100.00;97024.35;109537;1251;64850;-75
2023/11/28 02:09:51;;;;;;;64.80;44.00;;;;;;;-1.59;100.00;97019.82;109414;1251;59025;-75
2023/11/28 02:12:18;;;;;;;61.00;41.90;;;;;;;-1.59;100.00;97013.70;109435;1251;59090;-75
2023/11/28 02:14:45;;;;;;;61.60;40.70;;;;;;;-1.59;100.00;97008.14;109606;1251;66013;-76
2023/11/28 02:17:11;;;;;;;65.40;43.50;;;;;;;-1.60;100.00;97002.79;109589;1251;60965;-76
2023/11/28 02:19:38;;;;;;;67.10;44.80;;;;;;;-1.59;100.00;96999.98;109604;1251;64878;-76
2023/11/28 02:22:06;;;;;;;69.50;44.60;;;;;;;-1.59;100.00;96993.68;109622;1251;59003;-75
2023/11/28 02:24:38;;;;;;;63.50;40.40;;;;;;;-1.60;100.00;96988.66;109568;1251;58876;-77
2023/11/28 02:27:05;;;;;;;70.10;45.70;;;;;;;-1.60;100.00;96983.85;109582;1251;67439;-77
2023/11/28 02:29:32;;;;;;;65.50;42.90;;;;;;;-1.61;100.00;96977.91;109598;1250;59847;-75
2023/11/28 02:31:58;;;;;;;59.10;40.30;;;;;;;-1.62;100.00;96973.32;109566;1251;64172;-75
2023/11/28 02:34:25;;;;;;;65.40;43.50;;;;;;;-1.65;100.00;96965.59;108796;1251;1003059;-76
2023/11/28 02:36:51;;;;;;;64.30;41.90;;;;;;;-1.65;100.00;96962.52;109625;1251;58856;-77
2023/11/28 02:39:18;;;;;;;63.70;41.80;;;;;;;-1.67;100.00;96956.30;109540;1251;65956;-76
2023/11/28 02:41:44;;;;;;;64.00;42.90;;;;;;;-1.68;100.00;96952.05;109596;1250;60664;-77
2023/11/28 02:44:11;;;;;;;64.90;41.10;;;;;;;-1.69;100.00;96947.73;109593;1251;65084;-76
2023/11/28 02:46:38;;;;;;;69.20;43.90;;;;;;;-1.69;100.00;96941.46;109619;1251;59002;-76
2023/11/28 02:49:04;;;;;;;69.50;45.70;;;;;;;-1.70;100.00;96943.42;109603;1251;58989;-77
2023/11/28 02:51:31;;;;;;;66.60;44.10;;;;;;;-1.71;100.00;96937.90;109611;1251;67009;-77
2023/11/28 02:53:57;;;;;;;64.90;43.90;;;;;;;-1.70;100.00;96935.96;109609;1251;60812;-76
2023/11/28 02:56:24;;;;;;;69.90;45.20;;;;;;;-1.70;100.00;96934.73;109363;1251;64217;-76
2023/11/28 02:58:53;;;;;;;67.80;46.00;;;;;;;-1.70;100.00;96932.64;109422;1251;58997;-76
2023/11/28 03:01:20;;;;;;;64.80;42.30;;;;;;;-1.70;100.00;96926.37;109605;1251;59033;-76
2023/11/28 03:03:46;;;;;;;62.20;43.10;;;;;;;-1.69;100.00;96924.02;109599;1251;66195;-77
2023/11/28 03:06:13;;;;;;;67.00;43.00;;;;;;;-1.68;100.00;96920.52;109594;1250;61024;-76
2023/11/28 03:08:39;;;;;;;67.10;44.80;;;;;;;-1.66;100.00;96913.30;108663;1251;1002527;-77
2023/11/28 03:11:08;;;;;;;68.30;43.50;;;;;;;-1.66;100.00;96911.72;109561;1251;59289;-76
2023/11/28 03:13:35;;;;;;;61.10;41.10;;;;;;;-1.66;100.00;96910.83;109575;1251;59051;-78
2023/11/28 03:16:02;;;;;;;64.20;43.10;;;;;;;-1.67;100.00;96904.61;109616;1250;66085;-77
2023/11/28 03:18:29;;;;;;;61.50;40.50;;;;;;;-1.67;100.00;96905.67;109634;1251;59942;-77
2023/11/28 03:20:55;;;;;;;64.90;44.00;;;;;;;-1.67;100.00;96901.11;109579;1253;64026;-77
2023/11/28 03:23:22;;;;;;;63.70;42.60;;;;;;;-1.66;100.00;96897.80;109619;1251;58961;-77
2023/11/28 03:25:48;;;;;;;61.60;41.00;;;;;;;-1.66;100.00;96891.86;109614;1251;59951;-77
2023/11/28 03:28:15;;;;;;;63.80;42.00;;;;;;;-1.65;100.00;96890.25;109379;1250;66044;-76
2023/11/28 03:30:42;;;;;;;64.20;41.40;;;;;;;-1.65;100.00;96889.71;109591;1251;60022;-76
2023/11/28 03:33:08;;;;;;;60.70;40.80;;;;;;;-1.65;100.00;96886.23;109538;1251;63734;-76
2023/11/28 03:35:35;;;;;;;61.80;42.70;;;;;;;-1.65;100.00;96882.05;109623;1251;59014;-75
2023/11/28 03:38:01;;;;;;;63.10;42.60;;;;;;;-1.64;100.00;96878.86;109548;1251;61503;-76
2023/11/28 03:40:28;;;;;;;63.40;41.40;;;;;;;-1.64;100.00;96871.75;109576;1251;65640;-76
2023/11/28 03:42:54;;;;;;;64.00;42.80;;;;;;;-1.64;100.00;96866.66;109638;1250;60117;-76
2023/11/28 03:45:21;;;;;;;56.40;38.00;;;;;;;-1.63;100.00;96864.91;109598;1251;64014;-77
2023/11/28 03:47:47;;;;;;;58.10;39.50;;;;;;;-1.63;100.00;96860.19;109556;1254;59175;-76
2023/11/28 03:50:14;;;;;;;61.50;39.20;;;;;;;-1.63;100.00;96854.45;108842;1251;1002208;-76
2023/11/28 03:52:41;;;;;;;58.90;39.70;;;;;;;-1.63;100.00;96851.64;109628;1250;67134;-75
2023/11/28 03:55:09;;;;;;;57.00;38.30;;;;;;;-1.63;100.00;96846.95;109608;1251;60035;-77
2023/11/28 03:57:36;;;;;;;58.60;38.50;;;;;;;-1.64;100.00;96844.02;109344;1251;64157;-77
2023/11/28 04:00:03;;;;;;;60.40;39.50;;;;;;;-1.62;100.00;96840.47;109581;1251;59240;-75
2023/11/28 04:02:30;;;;;;;57.50;38.40;;;;;;;-1.62;100.00;96836.27;108596;1251;1002849;-76
2023/11/28 04:04:57;;;;;;;56.80;38.10;;;;;;;-1.63;100.00;96834.58;109573;1253;67169;-75
2023/11/28 04:07:23;;;;;;;58.50;38.60;;;;;;;-1.63;100.00;96831.11;109342;1250;61398;-77
2023/11/28 04:09:50;;;;;;;57.10;38.80;;;;;;;-1.62;100.00;96827.56;109571;1251;65217;-76
2023/11/28 04:12:16;;;;;;;56.40;39.50;;;;;;;-1.61;100.00;96824.37;109534;1253;59049;-75
2023/11/28 04:14:43;;;;;;;52.90;35.60;;;;;;;-1.61;100.00;96819.30;109423;1251;59058;-76
2023/11/28 04:17:09;;;;;;;53.80;37.80;;;;;;;-1.62;100.00;96818.33;109623;1251;65974;-76
2023/11/28 04:19:36;;;;;;;55.80;34.90;;;;;;;-1.63;100.00;96813.36;109613;1251;59977;-75
2023/11/28 04:22:02;;;;;;;60.50;37.80;;;;;;;-1.65;100.00;96811.54;109607;1251;73586;-76
2023/11/28 04:24:29;;;;;;;56.90;37.10;;;;;;;-1.65;100.00;96807.52;109573;1251;58948;-76
2023/11/28 04:26:55;;;;;;;59.30;36.40;;;;;;;-1.64;100.00;96798.96;109606;1251;59049;-74
2023/11/28 04:29:22;;;;;;;55.40;36.30;;;;;;;-1.64;100.00;96792.49;109620;1251;66148;-75
2023/11/28 04:31:49;;;;;;;52.80;36.10;;;;;;;-1.64;100.00;96794.27;109673;1250;60751;-76
2023/11/28 04:34:15;;;;;;;54.00;36.20;;;;;;;-1.65;100.00;96791.35;109545;1251;65072;-76
2023/11/28 04:36:42;;;;;;;55.60;36.10;;;;;;;-1.64;100.00;96787.63;109578;1251;58932;-76
2023/11/28 04:39:09;;;;;;;53.50;35.00;;;;;;;-1.63;100.00;96787.95;109579;1251;58990;-75
2023/11/28 04:41:36;;;;;;;54.20;37.90;;;;;;;-1.63;100.00;96781.69;109628;1250;66045;-75
2023/11/28 04:44:03;;;;;;;57.20;37.40;;;;;;;-1.64;100.00;96776.15;109635;1250;60072;-75
2023/11/28 04:46:29;;;;;;;57.10;36.70;;;;;;;-1.64;100.00;96774.58;108800;1253;1002684;-75
2023/11/28 04:48:57;;;;;;;56.50;37.50;;;;;;;-1.64;100.00;96775.78;109496;1251;59470;-75
2023/11/28 04:51:24;;;;;;;58.30;37.00;;;;;;;-1.62;100.00;96768.58;109553;1251;59081;-75
2023/11/28 04:53:50;;;;;;;54.00;38.10;;;;;;;-1.62;100.00;96760.70;109600;1251;65974;-75
2023/11/28 04:56:17;;;;;;;54.50;37.40;;;;;;;-1.60;100.00;96760.45;109590;1250;60240;-75
2023/11/28 04:58:43;;;;;;;57.40;38.50;;;;;;;-1.62;100.00;96757.91;109514;1251;63980;-75
2023/11/28 05:01:10;;;;;;;56.40;38.10;;;;;;;-1.64;100.00;96748.63;109544;1251;58944;-76
2023/11/28 05:03:37;;;;;;;58.60;38.80;;;;;;;-1.64;100.00;96742.02;109273;1251;59027;-75
2023/11/28 05:06:03;;;;;;;52.20;36.30;;;;;;;-1.65;100.00;96738.81;109600;1251;65647;-76
2023/11/28 05:08:30;;;;;;;53.30;35.80;;;;;;;-1.66;100.00;96732.74;109548;1251;61083;-75
2023/11/28 05:10:58;;;;;;;50.50;35.80;;;;;;;-1.66;100.00;96729.09;109562;1251;64068;-75
2023/11/28 05:13:25;;;;;;;52.80;35.80;;;;;;;-1.66;100.00;96730.84;109618;1251;59033;-76
2023/11/28 05:15:52;;;;;;;56.50;37.40;;;;;;;-1.68;100.00;96728.48;109266;1251;59962;-75
2023/11/28 05:18:19;;;;;;;54.70;35.70;;;;;;;-1.68;100.00;96728.15;109433;1254;159015;-75
2023/11/28 05:20:45;;;;;;;51.30;35.50;;;;;;;-1.66;100.00;96729.10;109574;1251;61053;-75
2023/11/28 05:23:12;;;;;;;50.60;35.80;;;;;;;-1.65;100.00;96726.07;108822;1251;1002626;-75
2023/11/28 05:25:38;;;;;;;55.30;36.50;;;;;;;-1.64;100.00;96723.59;109312;1251;59089;-74
2023/11/28 05:28:05;;;;;;;52.00;35.10;;;;;;;-1.65;100.00;96721.04;109646;1251;59025;-74
2023/11/28 05:30:32;;;;;;;50.00;34.30;;;;;;;-1.64;100.00;96723.75;109572;1250;59321;-74
2023/11/28 05:32:59;;;;;;;47.70;34.00;;;;;;;-1.64;100.00;96724.95;109603;1250;61162;-75
2023/11/28 05:35:25;;;;;;;47.80;31.30;;;;;;;-1.64;100.00;96720.98;109543;1251;64026;-76
2023/11/28 05:37:52;;;;;;;49.00;34.00;;;;;;;-1.66;100.00;96716.70;109562;1251;59012;-77
2023/11/28 05:40:18;;;;;;;42.20;28.30;;;;;;;-1.66;100.00;96717.77;109595;1251;58870;-75
2023/11/28 05:42:45;;;;;;;47.30;33.70;;;;;;;-1.66;100.00;96714.83;109617;1251;67079;-74
2023/11/28 05:45:11;;;;;;;52.30;34.60;;;;;;;-1.66;100.00;96715.52;109550;1251;61210;-74
2023/11/28 05:47:38;;;;;;;50.70;32.80;;;;;;;-1.66;100.00;96707.52;109551;1251;63945;-75
2023/11/28 05:50:05;;;;;;;43.90;31.50;;;;;;;-1.66;100.00;96703.67;109558;1251;58941;-76
2023/11/28 05:52:32;;;;;;;42.20;28.40;;;;;;;-1.66;100.00;96705.57;109572;1251;59763;-75
2023/11/28 05:54:58;;;;;;;45.50;31.20;;;;;;;-1.65;100.00;96706.77;109592;1251;66028;-75
2023/11/28 05:57:27;;;;;;;42.60;30.40;;;;;;;-1.66;100.00;96707.83;109567;1251;61059;-75
2023/11/28 05:59:53;;;;;;;41.70;29.90;;;;;;;-1.66;100.00;96705.08;109613;1251;63992;-75
2023/11/28 06:02:20;;;;;;;43.50;29.60;;;;;;;-1.67;100.00;96700.75;109575;1251;59378;-75
2023/11/28 06:04:49;;;;;;;41.50;28.90;;;;;;;-1.67;100.00;96699.55;109522;1256;59028;-75
2023/11/28 06:07:16;;;;;;;46.80;31.60;;;;;;;-1.68;100.00;96703.05;109598;1251;67206;-75
2023/11/28 06:09:42;;;;;;;45.40;31.40;;;;;;;-1.67;100.00;96700.77;109620;1251;61015;-75
2023/11/28 06:12:09;;;;;;;43.50;28.30;;;;;;;-1.65;100.00;96697.02;109585;1251;65262;-76
2023/11/28 06:14:36;;;;;;;41.70;27.60;;;;;;;-1.64;100.00;96698.33;109522;1253;58954;-77
2023/11/28 06:17:03;;;;;;;43.90;28.60;;;;;;;-1.64;100.00;96699.36;108513;1251;1002260;-76
2023/11/28 06:19:29;;;;;;;41.10;28.80;;;;;;;-1.63;100.00;96693.91;109576;1250;66127;-76
2023/11/28 06:21:56;;;;;;;41.70;28.40;;;;;;;-1.61;100.00;96694.84;109580;1250;60170;-76
2023/11/28 06:24:22;;;;;;;37.10;26.10;;;;;;;-1.61;100.00;96697.27;109594;1251;64062;-76
2023/11/28 06:26:49;;;;;;;37.80;27.80;;;;;;;-1.59;100.00;96698.91;109625;1251;59004;-76
2023/11/28 06:29:15;;;;;;;37.30;26.60;;;;;;;-1.58;100.00;96698.00;109678;1251;58868;-76
2023/11/28 06:31:42;;;;;;;43.30;29.30;;;;;;;-1.58;100.00;96698.51;109348;1251;67033;-76
2023/11/28 06:34:09;;;;;;;41.80;28.50;;;;;;;-1.58;100.00;96697.81;109292;1251;58989;-75
2023/11/28 06:36:36;;;;;;;37.00;27.10;;;;;;;-1.58;100.00;96692.96;109540;1251;64871;-76
2023/11/28 06:39:03;;;;;;;40.40;27.90;;;;;;;-1.57;100.00;96688.16;109575;1250;58994;-76
2023/11/28 06:41:30;;;;;;;39.90;27.30;;;;;;;-1.54;100.00;96684.52;109568;1251;59039;-77
2023/11/28 06:43:56;;;;;;;40.90;27.90;;;;;;;-1.52;100.00;96685.11;108823;1251;1002332;-77
2023/11/28 06:46:23;;;;;;;40.70;27.40;;;;;;;-1.49;100.00;96682.33;109623;1250;58911;-76
2023/11/28 06:48:49;;;;;;;39.90;27.20;;;;;;;-1.45;100.00;96682.84;109583;1251;58903;-77
2023/11/28 06:51:16;;;;;;;39.10;26.80;;;;;;;-1.42;100.00;96688.07;109607;1251;60002;-76
2023/11/28 06:53:43;;;;;;;36.70;27.10;;;;;;;-1.39;100.00;96687.34;109562;1250;59030;-77
2023/11/28 06:56:10;;;;;;;35.80;24.40;;;;;;;-1.36;100.00;96689.45;108098;1251;1003008;-76
2023/11/28 06:58:37;;;;;;;36.90;26.00;;;;;;;-1.33;100.00;96694.33;109594;1251;61437;-77
2023/11/28 07:01:03;;;;;;;32.90;24.30;;;;;;;-1.31;100.00;96693.02;109535;1251;65069;-76
2023/11/28 07:03:31;;;;;;;36.20;25.90;;;;;;;-1.28;100.00;96691.67;108835;1251;1002968;-75
2023/11/28 07:05:59;;;;;;;34.60;26.80;;;;;;;-1.27;100.00;96690.16;109602;1251;58971;-75
2023/11/28 07:08:26;;;;;;;37.00;26.30;;;;;;;-1.23;100.00;96690.64;109543;1251;66006;-75
2023/11/28 07:10:52;;;;;;;33.00;25.00;;;;;;;-1.19;100.00;96689.22;109569;1251;60246;-75
2023/11/28 07:13:19;;;;;;;30.20;23.80;;;;;;;-1.17;100.00;96690.29;109525;1251;65195;-75
2023/11/28 07:15:46;;;;;;;36.70;25.90;;;;;;;-1.14;100.00;96692.21;109525;1251;59415;-79
2023/11/28 07:18:19;;;;;;;34.50;24.30;;;;;;;-1.10;100.00;96688.70;109291;1251;58885;-76
2023/11/28 07:20:50;;;;;;;36.80;24.70;;;;;;;-1.05;100.00;96693.49;109579;1250;67061;-74
2023/11/28 07:23:17;;;;;;;30.30;22.50;;;;;;;-1.03;100.00;96691.05;109624;1251;60147;-77
2023/11/28 07:25:45;;;;;;;31.90;22.80;;;;;;;-1.03;100.00;96686.88;109587;1251;64071;-74
2023/11/28 07:28:11;;;;;;;28.00;21.80;;;;;;;-1.01;100.00;96687.64;109545;1251;59017;-76
2023/11/28 07:30:38;;;;;;;30.30;22.50;;;;;;;-1.00;100.00;96686.70;109619;1251;59022;-73
2023/11/28 07:33:05;;;;;;;30.10;22.80;;;;;;;-0.98;100.00;96686.58;109604;1251;74566;-74
2023/11/28 07:35:31;;;;;;;33.70;23.90;;;;;;;-0.98;100.00;96684.30;109586;1251;60142;-74
2023/11/28 07:37:58;;;;;;;32.80;24.70;;;;;;;-0.98;100.00;96678.92;109489;1251;63997;-78
2023/11/28 07:40:28;;;;;;;35.00;24.60;;;;;;;-0.98;100.00;96677.69;109421;1251;59291;-80
2023/11/28 07:42:55;;;;;;;33.70;24.00;;;;;;;-0.98;100.00;96678.40;109495;1251;58874;-76
2023/11/28 07:45:21;;;;;;;32.80;24.10;;;;;;;-0.96;100.00;96676.53;109232;1251;66711;-77
2023/11/28 07:47:48;;;;;;;31.90;23.20;;;;;;;-0.94;100.00;96671.17;109572;1254;61065;-77
2023/11/28 07:50:15;;;;;;;34.50;24.80;;;;;;;-0.88;100.00;96670.70;109566;1251;64137;-77
2023/11/28 07:52:41;;;;;;;31.50;22.80;;;;;;;-0.83;100.00;96667.06;109545;1250;58912;-77
2023/11/28 07:55:08;;;;;;;30.90;23.80;;;;;;;-0.76;100.00;96668.22;109575;1251;59003;-77
2023/11/28 07:57:35;;;;;;;33.50;23.10;;;;;;;-0.72;100.00;96663.85;109556;1251;65969;-77
2023/11/28 08:00:07;;;;;;;36.10;24.20;;;;;;;-0.69;100.00;96662.44;109587;1251;61292;-76
2023/11/28 08:02:35;;;;;;;32.10;23.30;;;;;;;-0.64;100.00;96665.80;109404;1251;65031;-79
2023/11/28 08:05:04;;;;;;;37.20;26.00;;;;;;;-0.60;100.00;96664.52;109594;1251;58952;-81
2023/11/28 08:08:36;;;;;;;33.10;25.20;;;;;;;-0.49;100.00;96661.23;103069;1292;600766;-78
2023/11/28 08:11:03;;;;;;;31.00;21.90;;;;;;;-0.47;100.00;96661.08;105739;1267;59193;-79
2023/11/28 08:13:31;;;;;;;32.30;22.90;;;;;;;-0.45;100.00;96659.77;105417;1269;59360;-80
2023/11/28 08:15:58;;;;;;;35.10;24.30;;;;;;;-0.45;100.00;96658.54;105070;1267;64087;-81
2023/11/28 08:18:25;;;;;;;36.80;25.20;;;;;;;-0.41;100.00;96655.16;105127;1269;59162;-80
2023/11/28 08:20:52;;;;;;;33.30;24.40;;;;;;;-0.36;100.00;96653.50;105378;1267;65495;-79
2023/11/28 08:23:19;;;;;;;31.50;25.30;;;;;;;-0.35;100.00;96652.88;105255;1263;160680;-78
2023/11/28 08:25:45;;;;;;;33.50;24.50;;;;;;;-0.30;100.00;96655.87;105063;1263;59119;-80
2023/11/28 08:28:12;;;;;;;33.10;24.30;;;;;;;-0.25;100.00;96657.66;105068;1264;64148;-78
2023/11/28 08:30:39;;;;;;;32.10;24.20;;;;;;;-0.23;100.00;96655.25;105105;1263;60983;-81
2023/11/28 08:33:05;;;;;;;31.10;24.30;;;;;;;-0.20;100.00;96654.10;105120;1263;65557;-78
2023/11/28 08:35:32;;;;;;;34.90;25.10;;;;;;;-0.19;100.00;96652.43;105307;1269;59624;-82
2023/11/28 08:37:58;;;;;;;32.50;24.30;;;;;;;-0.16;100.00;96652.09;105473;1263;59631;-79
2023/11/28 08:40:25;;;;;;;31.70;24.00;;;;;;;-0.16;100.00;96653.61;105176;1268;66037;-79
2023/11/28 08:42:52;;;;;;;32.20;24.80;;;;;;;-0.15;100.00;96653.23;105331;1267;60049;-79
2023/11/28 08:45:18;;;;;;;37.20;24.90;;;;;;;-0.10;100.00;96653.95;105081;1263;65641;-78
2023/11/28 08:47:45;;;;;;;34.90;26.30;;;;;;;-0.06;100.00;96652.13;105114;1263;59701;-79
2023/11/28 08:50:12;;;;;;;34.70;25.60;;;;;;;0.00;100.00;96650.54;105104;1269;59626;-78
2023/11/28 08:52:38;;;;;;;34.90;26.10;;;;;;;0.09;100.00;96648.08;105150;1263;64966;-80
2023/11/28 08:55:06;;;;;;;39.60;26.20;;;;;;;0.17;100.00;96649.32;105153;1268;61651;-81
2023/11/28 08:57:35;;;;;;;32.30;24.50;;;;;;;0.17;100.00;96651.61;105087;1263;64047;-78
2023/11/28 09:00:03;;;;;;;;;;;;;;;0.18;100.00;96655.20;105054;1264;59832;-81
2023/11/28 09:02:31;;;;;;;31.90;23.70;;;;;;;0.19;100.00;96656.47;105350;1263;59685;-81
2023/11/28 09:04:57;;;;;;;33.10;24.00;;;;;;;0.22;100.00;96649.54;105278;1264;63292;-80
2023/11/28 09:07:24;;;;;;;36.20;25.60;;;;;;;0.21;100.00;96646.98;105320;1263;60203;-78
2023/11/28 09:09:51;;;;;;;34.40;25.00;;;;;;;0.21;100.00;96642.94;105225;1264;64466;-79
2023/11/28 09:12:18;;;;;;;32.50;25.10;;;;;;;0.29;100.00;96638.77;105325;1267;59775;-79
2023/11/28 09:14:45;;;;;;;30.60;23.20;;;;;;;0.39;100.00;96637.98;105076;1269;59384;-79
2023/11/28 09:17:11;;;;;;;35.20;25.70;;;;;;;0.45;100.00;96642.50;105085;1263;64876;-78
2023/11/28 09:19:39;;;;;;;35.90;25.20;;;;;;;0.47;100.00;96640.41;105143;1268;61529;-80
2023/11/28 09:22:06;;;;;;;34.70;25.00;;;;;;;0.51;100.00;96641.90;105423;1263;64107;-76
2023/11/28 09:24:33;;;;;;;31.10;24.60;;;;;;;0.53;100.00;96642.52;104798;1272;59518;-78
2023/11/28 09:26:59;;;;;;;36.30;26.90;;;;;;;0.54;100.00;96638.59;105118;1264;59762;-78
2023/11/28 09:29:26;;;;;;;36.70;26.60;;;;;;;0.54;100.00;96638.35;105095;1264;64964;-80
2023/11/28 09:31:54;;;;;;;36.80;26.50;;;;;;;0.56;100.00;96637.77;105174;1263;60036;-79
2023/11/28 09:34:22;;;;;;;32.50;25.00;;;;;;;0.58;100.00;96639.17;105169;1268;62426;-79
2023/11/28 09:36:48;;;;;;;31.20;24.40;;;;;;;0.65;100.00;96634.52;105115;1264;59701;-83
2023/11/28 09:39:15;;;;;;;31.40;24.00;;;;;;;0.70;100.00;96629.84;105441;1264;59937;-80
2023/11/28 09:41:44;;;;;;;31.60;25.60;;;;;;;0.76;100.00;96628.41;105384;1269;64459;-81
2023/11/28 09:44:16;;;;;;;33.50;25.40;;;;;;;0.85;100.00;96622.21;105473;1268;60424;-82
2023/11/28 09:46:49;;;;;;;32.40;24.60;;;;;;;0.95;100.00;96621.75;105199;1263;64655;-77
2023/11/28 09:49:20;;;;;;;29.50;23.70;;;;;;;0.98;100.00;96617.56;105072;1269;59625;-79
2023/11/28 09:51:49;;;;;;;32.60;24.60;;;;;;;0.94;100.00;96613.96;104933;1263;59900;-78
2023/11/28 09:54:17;;;;;;;31.80;25.40;;;;;;;0.88;100.00;96613.12;105100;1268;65967;-79
2023/11/28 09:56:47;;;;;;;32.40;25.50;;;;;;;0.93;100.00;96614.02;105820;1256;60513;-73
2023/11/28 09:59:15;;;;;;;30.80;24.80;;;;;;;0.99;100.00;96609.39;105878;1256;64551;-74
2023/11/28 10:01:45;;;;;;;30.80;24.60;;;;;;;1.02;100.00;96603.27;105826;1254;59642;-74
2023/11/28 10:04:12;;;;;;;32.50;25.80;;;;;;;1.02;100.00;96599.95;105827;1256;59723;-74
2023/11/28 10:06:45;;;;;;;32.40;25.80;;;;;;;1.02;100.00;96598.88;105760;1254;64162;-73
2023/11/28 10:09:15;;;;;;;34.50;26.50;;;;;;;1.09;100.00;96588.96;106066;1253;61495;-82
2023/11/28 10:11:43;;;;;;;35.10;26.20;;;;;;;1.17;100.00;96583.08;106066;1256;64033;-77
2023/11/28 10:14:10;;;;;;;33.50;26.60;;;;;;;1.23;100.00;96581.72;105916;1253;59656;-78
2023/11/28 10:16:41;;;;;;;33.60;27.50;;;;;;;1.28;100.00;96582.45;106016;1257;59653;-79
2023/11/28 10:19:08;;;;;;;34.00;27.80;;;;;;;1.32;100.00;96580.25;106175;1252;65889;-81
2023/11/28 10:21:35;;;;;;;32.40;25.90;;;;;;;1.34;100.00;96581.15;106181;1256;59628;-80
2023/11/28 10:24:02;;;;;;;32.20;26.50;;;;;;;1.33;100.00;96578.77;106127;1254;65628;-80
2023/11/28 10:26:29;;;;;;;37.90;28.40;;;;;;;1.32;100.00;96574.66;105844;1254;59080;-78
2023/11/28 10:28:56;;;;;;;30.40;24.60;;;;;;;1.33;100.00;96577.21;105819;1254;59682;-78
2023/11/28 10:31:23;;;;;;;32.90;26.30;;;;;;;1.30;100.00;96575.33;105879;1254;63141;-77
2023/11/28 10:33:51;;;;;;;30.60;25.40;;;;;;;1.31;100.00;96571.89;105831;1255;60688;-78
2023/11/28 10:36:18;;;;;;;33.50;26.30;;;;;;;1.33;100.00;96574.05;105142;1256;1002701;-75
2023/11/28 10:38:46;;;;;;;31.90;26.20;;;;;;;1.28;100.00;96574.58;105817;1256;59600;-73
2023/11/28 10:41:14;;;;;;;30.10;24.20;;;;;;;1.27;100.00;96573.79;105803;1254;59736;-73
2023/11/28 10:43:43;;;;;;;29.70;24.70;;;;;;;1.29;100.00;96572.76;105804;1254;65920;-75
2023/11/28 10:46:13;;;;;;;28.00;22.60;;;;;;;1.32;100.00;96573.59;105897;1253;61541;-72
2023/11/28 10:48:41;;;;;;;27.20;23.20;;;;;;;1.30;100.00;96573.89;105806;1254;65652;-72
2023/11/28 10:51:10;;;;;;;24.80;22.10;;;;;;;1.34;100.00;96573.13;105818;1256;59545;-71
2023/11/28 10:53:39;;;;;;;26.30;20.90;;;;;;;1.39;100.00;96570.70;105943;1256;59548;-73
2023/11/28 10:56:09;;;;;;;27.30;21.20;;;;;;;1.42;100.00;96569.21;105844;1252;64722;-73
2023/11/28 10:58:38;;;;;;;25.10;20.90;;;;;;;1.44;100.00;96569.95;105966;1254;60891;-73
2023/11/28 11:01:05;;;;;;;25.40;20.80;;;;;;;1.50;100.00;96570.08;105834;1257;64733;-73